Аэропорт: Павлодар. Павлодар

ICAO: UASP

METAR:
2018/11/19 10:00
UASP 191000Z 17003MPS 9999 -SHSN OVC028CB M08/M09 Q1034 R21/4/0345 NOSIG RMK QFE764/1019
METAR:
2018/05/04 03:06
TAF TAF UASP 040200Z 0403/041209 14012MPS 9999 BKN020CB OVC100 
      TEMPO 0403/0406 12017MPS 3100 -SHRA SCT010 OVC020CB 
      TEMPO 0406/0412 17020MPS 3100 -SHRA BKN006 OVC020CB